Time;durP1;ratioP1;P1;durP2;ratioP2;P2;SDS_P1;SDS_P2;PMS_P1;PMS_P2;Temp;Humidity;BMP_temperature;BMP_pressure;BME280_temperature;BME280_humidity;BME280_pressure;Samples;Min_cycle;Max_cycle;Signal;HPM_P1;HPM_P2
2022/01/01 00:02:12;;;;;;;13.75;5.50;;;;;;;13.85;57.68;98899.81;4486152;32;20104;-89
2022/01/01 00:04:39;;;;;;;12.85;5.72;;;;;;;13.61;57.20;98902.28;4487525;31;20106;-91
2022/01/01 00:07:05;;;;;;;12.27;4.90;;;;;;;13.64;56.56;98920.63;4487168;31;20103;-89
2022/01/01 00:09:30;;;;;;;11.55;4.93;;;;;;;13.57;56.70;98915.69;4487169;31;20097;-92
2022/01/01 00:11:56;;;;;;;11.32;3.83;;;;;;;13.66;56.35;98924.84;4487271;31;20169;-84
2022/01/01 00:14:21;;;;;;;10.43;4.55;;;;;;;13.61;56.39;98918.16;4487098;31;20148;-90
2022/01/01 00:16:46;;;;;;;11.00;4.12;;;;;;;13.45;56.67;98916.50;4485734;32;20428;-90
2022/01/01 00:19:12;;;;;;;11.75;4.32;;;;;;;13.52;56.35;98909.00;4487120;31;20084;-91
2022/01/01 00:21:37;;;;;;;10.93;4.87;;;;;;;13.52;56.24;98916.94;4487292;32;20496;-90
2022/01/01 00:24:03;;;;;;;10.25;4.07;;;;;;;13.39;56.42;98905.47;4499373;31;20081;-89
2022/01/01 00:26:28;;;;;;;11.05;4.68;;;;;;;13.39;56.46;98901.03;4502742;31;20110;-89
2022/01/01 00:28:54;;;;;;;11.57;4.25;;;;;;;13.43;56.29;98891.94;4502899;31;20145;-90
2022/01/01 00:31:19;;;;;;;9.77;4.32;;;;;;;13.37;56.58;98873.81;4502648;31;20349;-91
2022/01/01 00:33:44;;;;;;;10.80;4.43;;;;;;;13.37;56.52;98881.75;4502810;31;20103;-90
2022/01/01 00:36:10;;;;;;;11.63;4.60;;;;;;;13.34;56.59;98887.22;4502597;31;20080;-89
2022/01/01 00:38:35;;;;;;;11.77;4.20;;;;;;;13.33;56.38;98883.75;4502768;31;20108;-88
2022/01/01 00:41:01;;;;;;;11.25;4.30;;;;;;;13.37;56.29;98889.69;4488414;31;20486;-89
2022/01/01 00:43:26;;;;;;;13.80;4.82;;;;;;;13.29;56.56;98887.50;4502676;31;20080;-93
2022/01/01 00:45:52;;;;;;;10.65;4.00;;;;;;;13.37;56.49;98885.25;4502665;31;20107;-89
2022/01/01 00:48:18;;;;;;;10.88;3.92;;;;;;;13.37;56.53;98887.87;4502709;31;20089;-91
2022/01/01 00:50:43;;;;;;;11.82;4.15;;;;;;;13.41;56.56;98887.69;4488280;31;20096;-91
2022/01/01 00:53:09;;;;;;;11.73;3.67;;;;;;;13.41;56.79;98891.19;4483335;32;20396;-90
2022/01/01 00:55:34;;;;;;;11.10;4.05;;;;;;;13.43;56.76;98891.09;4493114;31;20137;-88
2022/01/01 00:58:00;;;;;;;9.30;3.28;;;;;;;13.48;56.65;98894.28;4492755;31;20519;-90
2022/01/01 01:00:25;;;;;;;12.23;3.50;;;;;;;13.50;56.78;98890.59;4500769;31;20084;-89
2022/01/01 01:02:51;;;;;;;11.15;3.90;;;;;;;13.51;56.85;98889.63;4495129;31;20406;-89
2022/01/01 01:05:16;;;;;;;9.05;3.28;;;;;;;13.60;56.68;98882.91;4484291;31;20100;-90
2022/01/01 01:07:42;;;;;;;10.13;3.70;;;;;;;13.67;56.39;98891.28;4484829;31;20394;-89
2022/01/01 01:10:07;;;;;;;10.25;3.75;;;;;;;13.73;56.08;98889.09;4485465;31;20092;-90
2022/01/01 01:12:41;;;;;;;10.82;3.75;;;;;;;13.77;55.95;98895.87;4484117;32;20096;-89
2022/01/01 01:15:07;;;;;;;11.52;4.03;;;;;;;13.74;56.22;98896.06;4485167;31;20154;-89
2022/01/01 01:17:32;;;;;;;9.80;3.22;;;;;;;13.76;56.07;98899.47;4471020;32;20100;-89
2022/01/01 01:19:58;;;;;;;10.55;3.53;;;;;;;13.48;56.95;98899.56;4485653;32;20466;-90
2022/01/01 01:22:26;;;;;;;10.75;3.75;;;;;;;13.58;56.70;98900.69;4472155;32;20110;-90
2022/01/01 01:24:53;;;;;;;8.30;3.22;;;;;;;13.70;56.48;98894.59;4486423;32;20147;-91
2022/01/01 01:27:18;;;;;;;8.15;3.00;;;;;;;13.64;57.01;98900.28;4490646;31;20164;-90
2022/01/01 01:29:45;;;;;;;8.55;3.00;;;;;;;13.50;57.89;98893.25;4502362;31;20100;-88
2022/01/01 01:32:11;;;;;;;8.27;2.83;;;;;;;13.66;57.77;98901.03;4502358;31;20102;-86
2022/01/01 01:34:36;;;;;;;8.80;2.55;;;;;;;13.60;58.20;98905.84;4502022;31;20072;-86
2022/01/01 01:37:01;;;;;;;8.88;2.30;;;;;;;13.25;59.48;98895.72;4501915;31;20333;-84
2022/01/01 01:39:27;;;;;;;9.38;2.60;;;;;;;13.45;59.25;98894.50;4502259;31;20085;-85
2022/01/01 01:41:53;;;;;;;8.48;2.65;;;;;;;13.41;59.37;98893.84;4502120;31;20132;-85
2022/01/01 01:44:30;;;;;;;8.18;2.85;;;;;;;13.33;59.76;98904.06;4501960;31;20119;-83
2022/01/01 01:46:56;;;;;;;9.68;3.03;;;;;;;13.36;59.73;98903.84;4501954;31;20153;-93
2022/01/01 01:49:22;;;;;;;8.85;2.72;;;;;;;13.52;59.17;98901.06;4487631;31;20108;-92
2022/01/01 01:51:48;;;;;;;9.32;2.90;;;;;;;13.65;58.84;98890.53;4502000;31;20160;-87
2022/01/01 01:54:14;;;;;;;8.30;2.90;;;;;;;13.28;59.97;98892.88;4501936;31;20135;-87
2022/01/01 01:56:39;;;;;;;9.40;3.17;;;;;;;13.51;59.31;98899.38;4487555;31;20142;-87
2022/01/01 01:59:05;;;;;;;10.65;3.58;;;;;;;13.59;59.01;98894.44;4487439;31;20096;-87
2022/01/01 02:01:30;;;;;;;10.18;3.45;;;;;;;13.50;59.22;98895.03;4501850;31;20144;-87
2022/01/01 02:03:57;;;;;;;9.25;3.20;;;;;;;13.44;59.50;98893.63;4501679;31;20076;-86
2022/01/01 02:06:24;;;;;;;9.85;3.17;;;;;;;13.60;59.10;98898.78;4501692;31;20154;-87
2022/01/01 02:08:51;;;;;;;9.60;3.30;;;;;;;13.51;59.46;98902.87;4487433;31;20104;-87
2022/01/01 02:11:21;;;;;;;12.10;3.60;;;;;;;13.39;59.98;98908.12;4501631;31;20088;-87
2022/01/01 02:18:47;;;;;;;9.60;3.15;;;;;;;13.60;59.48;98903.22;4500453;31;20100;-85
2022/01/01 02:21:13;;;;;;;9.77;3.33;;;;;;;13.84;58.78;98900.78;4488170;31;20175;-84
2022/01/01 02:23:43;;;;;;;11.00;3.65;;;;;;;13.55;59.70;98906.16;4486775;32;20386;-86
2022/01/01 02:26:12;;;;;;;10.80;3.60;;;;;;;13.54;59.83;98900.03;4488009;31;20152;-87
2022/01/01 02:28:47;;;;;;;12.27;3.40;;;;;;;13.63;59.63;98903.03;4487114;32;20500;-85
2022/01/01 02:31:16;;;;;;;11.88;4.37;;;;;;;13.61;59.70;98896.97;4488235;31;20546;-86
2022/01/01 02:33:43;;;;;;;10.38;3.50;;;;;;;13.50;60.10;98895.03;4488083;31;20073;-85
2022/01/01 02:36:08;;;;;;;11.38;4.28;;;;;;;13.71;59.58;98898.06;4486233;32;20122;-85
2022/01/01 02:38:34;;;;;;;11.88;4.20;;;;;;;13.57;60.05;98897.16;4485953;31;20085;-85
2022/01/01 02:41:00;;;;;;;11.85;4.28;;;;;;;13.61;60.01;98897.81;4487380;31;20093;-85
2022/01/01 02:43:26;;;;;;;11.40;4.90;;;;;;;13.12;61.50;98904.44;4486077;32;20084;-85
2022/01/01 02:45:51;;;;;;;12.02;4.28;;;;;;;13.57;60.27;98906.91;4487133;32;20132;-84
2022/01/01 02:48:17;;;;;;;12.15;4.45;;;;;;;13.30;61.11;98910.37;4487335;31;20092;-85
2022/01/01 02:50:43;;;;;;;13.45;4.75;;;;;;;13.52;60.59;98922.22;4472877;32;20140;-84
2022/01/01 02:53:15;;;;;;;13.38;5.00;;;;;;;13.53;60.41;98921.31;4487281;31;20096;-85
2022/01/01 02:55:42;;;;;;;13.07;4.50;;;;;;;13.42;60.93;98892.88;4487864;31;20169;-84
2022/01/01 02:58:09;;;;;;;12.23;4.28;;;;;;;13.21;61.52;98895.06;4486570;32;20138;-84
2022/01/01 03:00:35;;;;;;;13.00;5.22;;;;;;;13.35;61.16;98884.50;4487770;31;20155;-85
2022/01/01 03:03:00;;;;;;;13.25;5.18;;;;;;;13.12;61.86;98878.00;4487668;31;20077;-86
2022/01/01 03:05:27;;;;;;;12.02;4.68;;;;;;;12.90;62.75;98875.88;4487616;31;20157;-85
2022/01/01 03:07:52;;;;;;;14.30;5.93;;;;;;;12.92;62.67;98883.69;4486454;32;20105;-86
2022/01/01 03:10:17;;;;;;;15.70;6.20;;;;;;;12.88;62.85;98887.47;4487625;31;20073;-85
2022/01/01 03:12:43;;;;;;;14.63;5.10;;;;;;;12.81;63.04;98887.00;4486547;32;20076;-86
2022/01/01 03:15:09;;;;;;;13.48;5.15;;;;;;;12.90;62.83;98883.81;4487473;31;20157;-85
2022/01/01 03:17:34;;;;;;;12.50;5.00;;;;;;;12.87;62.74;98883.13;4487736;31;20104;-85
2022/01/01 03:19:59;;;;;;;16.87;6.37;;;;;;;12.74;63.34;98883.03;4486520;32;20084;-85
2022/01/01 03:22:25;;;;;;;15.38;5.85;;;;;;;12.78;63.22;98880.09;4487618;31;20084;-85
2022/01/01 03:24:50;;;;;;;13.75;5.72;;;;;;;12.50;64.02;98883.63;4485923;32;20101;-85
2022/01/01 03:27:16;;;;;;;13.73;5.65;;;;;;;12.56;64.02;98880.59;4487689;31;20428;-85
2022/01/01 03:29:41;;;;;;;16.35;6.72;;;;;;;12.43;64.57;98902.56;4486285;32;20104;-85
2022/01/01 03:32:07;;;;;;;15.40;6.68;;;;;;;12.60;63.93;98905.03;4487505;31;20114;-85
2022/01/01 03:34:32;;;;;;;14.20;6.50;;;;;;;12.64;63.74;98909.19;4486284;32;20101;-84
2022/01/01 03:36:58;;;;;;;14.55;5.50;;;;;;;12.73;63.36;98911.28;4487421;31;20424;-84
2022/01/01 03:39:23;;;;;;;15.10;6.43;;;;;;;12.76;63.22;98904.94;4487596;31;20072;-84
2022/01/01 03:41:49;;;;;;;13.13;5.18;;;;;;;12.79;63.17;98907.41;4487531;31;20119;-84
2022/01/01 03:44:15;;;;;;;14.57;5.97;;;;;;;12.39;64.52;98896.63;4487547;31;20096;-84
2022/01/01 03:46:40;;;;;;;14.65;5.78;;;;;;;12.35;64.74;98889.81;4487447;31;20085;-84
2022/01/01 03:49:06;;;;;;;12.37;5.10;;;;;;;12.35;64.83;98927.66;4485968;32;20145;-84
2022/01/01 03:51:31;;;;;;;13.00;5.50;;;;;;;12.19;65.57;98898.66;4487401;31;20119;-84
2022/01/01 03:53:56;;;;;;;15.88;5.75;;;;;;;12.72;63.93;98900.78;4486096;32;20096;-85
2022/01/01 03:56:22;;;;;;;14.80;5.85;;;;;;;12.55;64.23;98910.59;4487518;31;20106;-85
2022/01/01 03:58:47;;;;;;;13.32;5.68;;;;;;;12.45;64.52;98903.31;4487374;31;20123;-86
2022/01/01 04:01:13;;;;;;;16.33;5.45;;;;;;;12.54;64.18;98900.12;4486984;31;20104;-86
2022/01/01 04:03:38;;;;;;;13.88;5.53;;;;;;;12.52;64.21;98965.44;4486112;32;20421;-85
2022/01/01 04:06:04;;;;;;;18.05;5.93;;;;;;;12.29;65.00;98920.09;4487433;31;20115;-85
2022/01/01 04:08:30;;;;;;;16.12;5.50;;;;;;;12.12;65.59;98923.72;4487240;31;20116;-84
2022/01/01 04:10:56;;;;;;;13.80;5.32;;;;;;;12.07;65.81;98932.84;4487439;31;20102;-85
2022/01/01 04:13:22;;;;;;;16.55;5.72;;;;;;;12.15;65.55;98943.84;4487234;31;20096;-85
2022/01/01 04:15:47;;;;;;;13.77;5.50;;;;;;;12.37;64.84;98941.63;4487139;31;20084;-85
2022/01/01 04:18:18;;;;;;;14.43;5.30;;;;;;;12.15;65.44;98941.19;4487306;31;20084;-84
2022/01/01 04:20:45;;;;;;;14.32;5.95;;;;;;;12.33;64.85;98940.09;4487198;31;20072;-84
2022/01/01 04:23:10;;;;;;;13.77;5.43;;;;;;;12.33;64.57;98941.91;4487297;31;20153;-84
2022/01/01 04:25:36;;;;;;;14.05;5.72;;;;;;;12.02;65.75;98942.84;4486024;32;20379;-84
2022/01/01 04:28:02;;;;;;;13.10;4.85;;;;;;;12.15;65.41;98936.75;4487226;32;20088;-85
2022/01/01 04:30:29;;;;;;;13.13;4.93;;;;;;;12.20;65.26;98944.41;4485976;32;20064;-84
2022/01/01 04:32:55;;;;;;;14.93;5.18;;;;;;;12.20;65.14;98953.16;4487151;31;20097;-85
2022/01/01 04:35:21;;;;;;;13.68;4.78;;;;;;;11.95;66.16;98937.06;4486296;31;20113;-85
2022/01/01 04:37:46;;;;;;;12.68;4.75;;;;;;;12.16;65.51;98949.00;4487307;31;20072;-85
2022/01/01 04:40:12;;;;;;;13.98;5.43;;;;;;;12.22;65.12;98961.00;4485829;32;20459;-85
2022/01/01 04:42:38;;;;;;;13.93;4.87;;;;;;;12.22;65.34;98963.66;4487023;31;20115;-84
2022/01/01 04:45:04;;;;;;;12.70;5.25;;;;;;;12.02;65.85;98962.19;4486901;31;20153;-84
2022/01/01 04:47:29;;;;;;;13.85;5.30;;;;;;;12.32;64.95;98970.13;4487017;31;20142;-84
2022/01/01 04:49:55;;;;;;;14.10;5.53;;;;;;;12.36;64.67;98961.06;4486965;31;20080;-84
2022/01/01 04:52:20;;;;;;;14.52;5.07;;;;;;;12.35;64.71;98969.06;4485876;32;20129;-84
2022/01/01 04:54:45;;;;;;;14.13;5.53;;;;;;;12.12;65.34;98965.13;4486840;31;20452;-85
2022/01/01 04:57:12;;;;;;;13.40;5.18;;;;;;;12.19;65.32;98983.19;4485861;32;20084;-84
2022/01/01 04:59:38;;;;;;;13.40;5.47;;;;;;;12.08;65.84;98959.19;4486907;31;20119;-84
2022/01/01 05:02:04;;;;;;;13.05;4.87;;;;;;;12.02;66.05;98970.09;4485721;32;20525;-84
2022/01/01 05:04:29;;;;;;;13.25;5.28;;;;;;;11.69;67.26;98971.06;4486845;31;20124;-84
2022/01/01 05:06:55;;;;;;;12.07;4.75;;;;;;;11.77;67.31;98970.63;4485650;32;20347;-85
2022/01/01 05:09:21;;;;;;;12.55;5.03;;;;;;;12.11;66.07;98963.41;4485568;32;20089;-84
2022/01/01 05:11:47;;;;;;;14.20;5.07;;;;;;;11.78;67.48;98959.97;4486700;31;20149;-85
2022/01/01 05:14:12;;;;;;;14.87;5.10;;;;;;;12.00;66.60;98951.69;4486682;31;20119;-84
2022/01/01 05:16:38;;;;;;;13.35;5.05;;;;;;;11.96;66.95;98954.63;4485378;32;20092;-84
2022/01/01 05:19:04;;;;;;;10.70;4.68;;;;;;;11.98;66.98;98952.75;4485813;32;20404;-84
2022/01/01 05:21:32;;;;;;;13.60;4.97;;;;;;;11.98;66.91;98958.03;4487024;31;20148;-85
2022/01/01 05:23:58;;;;;;;;;;;;;;;12.01;66.75;98957.81;4487194;31;20110;-84
2022/01/01 05:26:23;;;;;;;12.35;4.20;;;;;;;11.75;67.89;98952.22;4485747;32;19996;-84
2022/01/01 05:28:49;;;;;;;12.02;4.78;;;;;;;11.79;67.78;98959.03;4486764;31;20112;-84
2022/01/01 05:31:19;;;;;;;12.30;4.22;;;;;;;11.87;67.73;98958.59;4486786;31;20092;-84
2022/01/01 05:33:49;;;;;;;12.85;4.72;;;;;;;11.72;68.24;98962.09;4486538;31;20130;-85
2022/01/01 05:36:14;;;;;;;12.52;3.87;;;;;;;11.69;68.65;98962.28;4486473;31;20092;-84
2022/01/01 05:38:41;;;;;;;12.18;4.22;;;;;;;12.02;67.24;98959.53;4486312;31;20141;-85
2022/01/01 05:41:07;;;;;;;10.98;3.67;;;;;;;12.11;67.00;98966.94;4486324;31;20152;-85
2022/01/01 05:43:33;;;;;;;10.45;4.30;;;;;;;11.92;67.77;98959.22;4486319;31;20115;-85
2022/01/01 05:45:58;;;;;;;11.98;3.90;;;;;;;11.90;67.73;98979.59;4485132;32;20097;-85
2022/01/01 05:48:24;;;;;;;11.38;3.87;;;;;;;11.83;68.28;98959.72;4488011;31;20115;-86
2022/01/01 05:50:49;;;;;;;10.07;3.58;;;;;;;11.92;67.83;98967.13;4486971;32;20519;-85
2022/01/01 05:53:15;;;;;;;11.12;3.97;;;;;;;12.07;67.29;98990.94;4488056;32;20118;-86
2022/01/01 05:55:41;;;;;;;11.93;4.32;;;;;;;12.24;66.75;98969.69;4488551;31;20118;-85
2022/01/01 05:58:06;;;;;;;11.27;3.50;;;;;;;12.04;67.34;98970.03;4488512;31;20080;-84
2022/01/01 06:00:32;;;;;;;10.15;3.15;;;;;;;12.09;67.27;98979.37;4488451;31;20113;-84
2022/01/01 06:02:58;;;;;;;12.13;3.70;;;;;;;12.16;67.03;98961.38;4487373;32;20122;-85
2022/01/01 06:05:25;;;;;;;9.23;3.03;;;;;;;11.95;67.78;98964.31;4488087;31;20375;-85
2022/01/01 06:07:51;;;;;;;10.63;3.62;;;;;;;11.99;67.70;98980.81;4488047;31;20084;-86
2022/01/01 06:10:16;;;;;;;11.12;3.60;;;;;;;12.08;67.31;98982.94;4486918;32;20134;-85
2022/01/01 06:12:41;;;;;;;10.70;3.00;;;;;;;12.15;67.17;98984.31;4488012;31;20130;-84
2022/01/01 06:15:07;;;;;;;10.63;3.80;;;;;;;12.17;67.27;98979.78;4486737;32;20092;-85
2022/01/01 06:17:33;;;;;;;9.57;3.00;;;;;;;12.12;67.31;98973.06;4488120;31;20084;-84
2022/01/01 06:19:58;;;;;;;10.02;3.03;;;;;;;12.29;66.64;98988.78;4487941;31;20093;-85
2022/01/01 06:22:24;;;;;;;11.07;2.97;;;;;;;12.32;66.67;98978.03;4488155;32;20132;-85
2022/01/01 06:24:49;;;;;;;9.63;3.00;;;;;;;12.33;66.57;98992.09;4488044;31;20132;-84
2022/01/01 06:27:14;;;;;;;9.98;2.95;;;;;;;12.29;66.64;98995.84;4488182;31;20420;-85
2022/01/01 06:29:40;;;;;;;9.23;3.00;;;;;;;12.19;67.14;98992.91;4486936;32;20151;-85
2022/01/01 06:32:06;;;;;;;10.73;3.03;;;;;;;12.27;66.85;99016.22;4486938;32;20147;-86
2022/01/01 06:34:31;;;;;;;9.88;2.67;;;;;;;12.48;66.04;99011.50;4488218;31;20091;-86
2022/01/01 06:36:56;;;;;;;8.60;2.55;;;;;;;12.33;66.68;99024.63;4486871;32;20138;-85
2022/01/01 06:39:22;;;;;;;9.18;3.00;;;;;;;12.23;66.97;99018.19;4488069;31;20123;-86
2022/01/01 06:41:47;;;;;;;9.13;3.12;;;;;;;12.26;66.90;99027.72;4488000;31;20115;-84
2022/01/01 06:44:13;;;;;;;10.55;3.22;;;;;;;12.49;66.18;99023.75;4487808;31;20088;-84
2022/01/01 06:46:38;;;;;;;8.13;2.67;;;;;;;12.11;67.59;99032.09;4487838;31;20134;-84
2022/01/01 06:49:04;;;;;;;9.98;2.85;;;;;;;12.38;66.54;99046.38;4487814;31;20399;-85
2022/01/01 06:51:32;;;;;;;8.60;2.65;;;;;;;12.36;66.79;99035.03;4486639;32;20131;-85
2022/01/01 06:53:57;;;;;;;;;;;;;;;12.55;65.94;99033.94;4488264;31;20149;-85
2022/01/01 06:56:22;;;;;;;8.60;2.83;;;;;;;12.31;66.73;99039.72;4486928;32;20019;-85
2022/01/01 06:58:48;;;;;;;8.35;2.33;;;;;;;12.54;66.02;99056.87;4487316;31;20123;-84
2022/01/01 07:01:13;;;;;;;8.98;2.78;;;;;;;12.68;65.51;99048.16;4488187;31;20120;-86
2022/01/01 07:03:38;;;;;;;9.25;2.55;;;;;;;12.74;65.40;99062.78;4487980;31;20076;-85
2022/01/01 07:06:04;;;;;;;9.10;2.72;;;;;;;12.43;66.46;99080.44;4488042;31;20363;-86
2022/01/01 07:08:29;;;;;;;8.40;2.40;;;;;;;12.49;66.47;99072.16;4488015;31;20147;-86
2022/01/01 07:10:55;;;;;;;9.95;2.80;;;;;;;12.74;65.57;99073.38;4487979;31;20085;-85
2022/01/01 07:13:21;;;;;;;8.63;2.75;;;;;;;12.72;65.67;99072.59;4486850;32;20084;-86
2022/01/01 07:15:46;;;;;;;9.35;2.45;;;;;;;12.77;65.65;99071.41;4487677;31;20083;-86
2022/01/01 07:18:12;;;;;;;9.02;2.50;;;;;;;12.84;65.29;99073.69;4487880;31;20089;-86
2022/01/01 07:20:37;;;;;;;8.95;2.55;;;;;;;12.89;65.13;99083.03;4486804;32;20092;-86
2022/01/01 07:23:03;;;;;;;10.13;2.70;;;;;;;13.07;64.45;99075.78;4487881;31;20083;-86
2022/01/01 07:25:29;;;;;;;9.38;2.42;;;;;;;13.12;64.21;99079.03;4487804;31;20073;-86
2022/01/01 07:27:55;;;;;;;8.25;2.37;;;;;;;13.11;64.27;99085.25;4487925;31;20096;-85
2022/01/01 07:30:20;;;;;;;9.93;2.70;;;;;;;12.93;64.69;99089.00;4486721;32;20360;-85
2022/01/01 07:32:47;;;;;;;8.55;2.10;;;;;;;12.85;65.05;99091.25;4486549;32;20076;-85
2022/01/01 07:35:13;;;;;;;7.40;2.42;;;;;;;12.74;65.50;99092.72;4487824;31;20137;-86
2022/01/01 07:37:39;;;;;;;10.77;2.55;;;;;;;12.85;65.23;99086.81;4487883;31;20084;-86
2022/01/01 07:40:08;;;;;;;9.15;2.67;;;;;;;12.89;64.97;99101.53;4486378;32;20092;-87
2022/01/01 07:42:33;;;;;;;9.35;2.70;;;;;;;12.86;65.17;99109.66;4487568;31;20439;-86
2022/01/01 07:44:59;;;;;;;9.57;2.87;;;;;;;12.93;64.88;99104.88;4486271;32;20072;-86
2022/01/01 07:47:25;;;;;;;9.27;2.45;;;;;;;12.92;64.86;99124.31;4486266;32;20135;-86
2022/01/01 07:49:51;;;;;;;7.30;2.17;;;;;;;12.75;65.51;99126.16;4487390;31;20456;-86
2022/01/01 07:52:16;;;;;;;12.13;2.85;;;;;;;12.83;65.20;99132.81;4487312;31;20092;-86
2022/01/01 07:54:41;;;;;;;8.73;2.60;;;;;;;13.06;64.65;99142.03;4487313;31;20131;-86
2022/01/01 07:57:07;;;;;;;9.20;2.30;;;;;;;13.06;64.51;99128.81;4487373;31;20084;-86
2022/01/01 07:59:32;;;;;;;7.12;2.53;;;;;;;13.29;63.96;99130.03;4486107;32;20093;-86
2022/01/01 08:01:58;;;;;;;8.70;2.67;;;;;;;13.28;63.78;99142.44;4487366;31;20084;-85
2022/01/01 08:04:23;;;;;;;7.78;2.50;;;;;;;13.56;62.89;99140.81;4487370;31;20107;-86
2022/01/01 08:06:48;;;;;;;9.00;2.22;;;;;;;13.56;62.54;99131.06;4486052;32;20145;-86
2022/01/01 08:09:16;;;;;;;6.97;2.35;;;;;;;13.95;61.70;99145.41;4487246;31;20129;-87
2022/01/01 08:11:41;;;;;;;7.47;2.40;;;;;;;14.01;61.30;99146.00;4487371;31;20092;-87
2022/01/01 08:14:06;;;;;;;8.10;2.33;;;;;;;14.03;61.20;99160.84;4487290;31;20511;-86
2022/01/01 08:16:32;;;;;;;8.43;2.55;;;;;;;13.86;61.60;99169.81;4487217;31;20436;-88
2022/01/01 08:18:57;;;;;;;8.40;2.35;;;;;;;13.94;61.39;99158.75;4486328;32;20387;-86
2022/01/01 08:21:23;;;;;;;8.63;2.40;;;;;;;14.15;60.84;99168.00;4487414;31;20142;-91
2022/01/01 08:23:48;;;;;;;7.97;2.53;;;;;;;14.22;60.69;99165.81;4486301;32;20136;-90
2022/01/01 08:26:14;;;;;;;7.50;2.58;;;;;;;14.28;60.20;99161.94;4487266;31;20097;-80
2022/01/01 08:28:39;;;;;;;7.30;2.10;;;;;;;14.51;59.62;99177.22;4487186;32;20120;-79
2022/01/01 08:31:06;;;;;;;7.20;2.33;;;;;;;14.52;59.53;99175.41;4485946;32;20084;-82
2022/01/01 08:33:31;;;;;;;8.07;2.50;;;;;;;14.30;60.09;99181.25;4487039;31;20088;-83
2022/01/01 08:35:57;;;;;;;9.25;2.90;;;;;;;14.48;59.66;99173.91;4487064;31;20138;-81
2022/01/01 08:38:22;;;;;;;8.23;2.50;;;;;;;14.34;59.92;99190.69;4472679;32;20096;-86
2022/01/01 08:40:47;;;;;;;7.03;2.37;;;;;;;14.22;60.22;99196.78;4487111;31;20080;-86
2022/01/01 08:43:13;;;;;;;8.32;2.67;;;;;;;14.14;60.56;99184.00;4487034;31;20088;-86
2022/01/01 08:45:38;;;;;;;8.07;2.60;;;;;;;14.49;59.62;99181.75;4486715;31;20345;-87
2022/01/01 08:48:05;;;;;;;9.65;2.72;;;;;;;14.34;60.02;99191.53;4485848;32;20150;-84
2022/01/01 08:50:31;;;;;;;8.40;2.23;;;;;;;14.48;59.36;99184.50;4486884;31;20100;-81
2022/01/01 08:52:57;;;;;;;8.82;2.67;;;;;;;14.58;59.23;99175.03;4485779;32;20522;-81
2022/01/01 08:55:23;;;;;;;9.75;2.58;;;;;;;14.51;59.31;99174.56;4486864;31;20096;-83
2022/01/01 08:57:49;;;;;;;9.55;2.87;;;;;;;14.45;59.72;99177.59;4485613;31;20466;-82
2022/01/01 09:00:15;;;;;;;7.28;2.22;;;;;;;14.47;59.58;99186.31;4493900;31;20114;-82
2022/01/01 09:02:40;;;;;;;9.27;2.78;;;;;;;14.68;59.19;99185.87;4489851;31;20084;-84
2022/01/01 09:05:06;;;;;;;8.77;2.42;;;;;;;14.54;59.31;99192.94;4490199;31;20122;-84
2022/01/01 09:07:31;;;;;;;8.85;2.60;;;;;;;14.78;58.66;99194.97;4499481;31;20111;-84
2022/01/01 09:09:58;;;;;;;8.18;2.80;;;;;;;14.73;58.88;99203.19;4477053;31;20375;-85
2022/01/01 09:12:25;;;;;;;9.02;2.72;;;;;;;14.96;58.35;99214.13;4494505;31;20076;-85
2022/01/01 09:14:50;;;;;;;9.18;2.87;;;;;;;14.79;58.66;99217.03;4479112;32;20113;-85
2022/01/01 09:17:16;;;;;;;9.90;2.53;;;;;;;14.86;58.39;99216.53;4485143;31;20130;-86
2022/01/01 09:19:42;;;;;;;8.50;2.55;;;;;;;14.47;59.51;99226.06;4489354;31;20091;-85
2022/01/01 09:22:07;;;;;;;9.07;2.53;;;;;;;14.52;59.29;99220.47;4495361;31;20072;-86
2022/01/01 09:24:33;;;;;;;7.85;2.60;;;;;;;14.50;59.39;99222.38;4480393;31;20164;-83
2022/01/01 09:26:59;;;;;;;8.43;2.67;;;;;;;14.44;59.56;99243.97;4490444;31;20110;-84
2022/01/01 09:29:24;;;;;;;10.25;3.05;;;;;;;14.64;59.00;99227.69;4498983;31;20096;-82
2022/01/01 09:31:50;;;;;;;9.77;3.00;;;;;;;14.68;58.83;99223.00;4490016;31;20142;-84
2022/01/01 09:34:15;;;;;;;9.07;2.72;;;;;;;14.57;59.11;99234.31;4494904;31;20149;-86
2022/01/01 09:36:40;;;;;;;9.07;2.62;;;;;;;14.69;58.81;99228.22;4481027;31;20089;-89
2022/01/01 09:39:07;;;;;;;8.90;2.55;;;;;;;14.78;58.64;99226.78;4489518;31;20077;-88
2022/01/01 09:41:32;;;;;;;9.23;2.70;;;;;;;14.65;58.97;99218.75;4499234;31;20089;-85
2022/01/01 09:43:58;;;;;;;9.25;2.80;;;;;;;14.86;58.36;99216.53;4488395;31;20167;-86
2022/01/01 09:46:28;;;;;;;8.18;2.90;;;;;;;14.89;58.17;99220.75;4496964;31;20096;-89
2022/01/01 09:48:54;;;;;;;10.48;2.90;;;;;;;15.05;57.83;99218.81;4490847;31;20172;-89
2022/01/01 09:51:20;;;;;;;8.18;2.53;;;;;;;14.94;58.20;99223.97;4474219;31;20658;-89
2022/01/01 09:53:46;;;;;;;7.47;2.53;;;;;;;14.78;58.47;99228.59;4498136;31;20123;-86
2022/01/01 09:56:12;;;;;;;8.18;2.53;;;;;;;14.97;58.16;99215.84;4479621;31;20447;-87
2022/01/01 09:58:38;;;;;;;9.20;2.87;;;;;;;14.91;58.22;99219.75;4501626;31;20435;-87
2022/01/01 10:01:06;;;;;;;8.70;2.90;;;;;;;15.11;57.83;99230.84;4501840;31;20437;-89
2022/01/01 10:03:40;;;;;;;9.30;2.70;;;;;;;14.55;59.04;99226.44;4501881;31;20122;-87
2022/01/01 10:06:14;;;;;;;10.07;2.65;;;;;;;14.90;58.30;99228.63;4486503;31;20107;-90
2022/01/01 10:09:02;;;;;;;8.20;2.58;;;;;;;14.65;59.19;99245.28;4486178;31;20091;-89
2022/01/01 10:11:28;;;;;;;8.50;2.60;;;;;;;14.79;58.89;99243.53;4500427;31;20778;-89
2022/01/01 10:13:53;;;;;;;8.68;2.65;;;;;;;15.23;57.70;99247.75;4485997;31;20123;-89
2022/01/01 10:16:20;;;;;;;9.13;2.97;;;;;;;14.94;57.85;99240.75;4485754;31;20096;-90
2022/01/01 10:18:51;;;;;;;8.65;2.62;;;;;;;15.13;57.51;99243.03;4485922;31;20100;-90
2022/01/01 10:21:21;;;;;;;8.25;2.47;;;;;;;15.14;57.46;99239.44;4501009;31;20081;-89
2022/01/01 10:23:51;;;;;;;9.50;2.50;;;;;;;15.10;57.22;99243.25;4487381;31;20108;-89
2022/01/01 10:29:17;;;;;;;8.73;2.67;;;;;;;15.30;56.74;99233.13;4501800;31;20189;-89
2022/01/01 10:31:58;;;;;;;8.25;2.30;;;;;;;15.18;56.91;99240.06;4501606;31;20502;-91
2022/01/01 10:34:27;;;;;;;9.55;2.85;;;;;;;15.09;57.30;99233.59;4502610;31;20093;-88
2022/01/01 10:36:53;;;;;;;7.85;2.60;;;;;;;15.04;57.15;99235.69;4503900;31;20118;-88
2022/01/01 10:39:21;;;;;;;7.30;1.95;;;;;;;15.01;57.31;99241.22;4503859;31;20491;-89
2022/01/01 10:42:00;;;;;;;7.57;2.50;;;;;;;15.04;57.51;99226.88;4503715;31;20088;-89
2022/01/01 10:44:28;;;;;;;8.90;2.40;;;;;;;15.07;57.21;99234.66;4489860;31;20679;-89
2022/01/01 10:46:53;;;;;;;8.70;2.70;;;;;;;14.97;57.55;99246.78;4503883;31;20549;-89
2022/01/01 10:49:49;;;;;;;8.90;2.78;;;;;;;14.94;57.88;99240.75;4503606;31;20107;-89
2022/01/01 10:52:23;;;;;;;7.60;2.60;;;;;;;14.80;58.18;99240.81;4503698;31;20131;-89
2022/01/01 10:54:53;;;;;;;7.93;2.72;;;;;;;14.94;57.78;99247.84;4503569;31;20123;-88
2022/01/01 10:57:26;;;;;;;10.07;2.83;;;;;;;14.88;57.74;99248.25;4503865;31;20176;-88
2022/01/01 10:59:53;;;;;;;9.45;2.72;;;;;;;14.99;57.50;99250.19;4503525;31;20167;-89
2022/01/01 11:02:24;;;;;;;8.57;2.65;;;;;;;15.13;57.10;99248.34;4489168;31;20079;-88
2022/01/01 11:04:50;;;;;;;6.68;2.22;;;;;;;15.18;57.10;99245.38;4503781;31;20119;-88
2022/01/01 11:07:28;;;;;;;8.35;2.62;;;;;;;15.09;57.41;99244.19;4489355;31;20135;-88
2022/01/01 11:09:55;;;;;;;7.43;2.30;;;;;;;15.43;56.08;99243.75;4503611;31;20114;-89
2022/01/01 11:12:22;;;;;;;8.90;2.50;;;;;;;15.43;56.18;99241.09;4503467;31;20084;-89
2022/01/01 11:14:48;;;;;;;8.25;2.40;;;;;;;15.68;55.62;99237.63;4488906;31;20118;-88
2022/01/01 11:17:13;;;;;;;8.35;2.67;;;;;;;15.52;55.66;99241.31;4489201;31;20104;-89
2022/01/01 11:19:40;;;;;;;7.28;2.30;;;;;;;15.48;55.93;99239.00;4504553;31;20084;-89
2022/01/01 11:22:06;;;;;;;8.55;2.70;;;;;;;15.51;55.83;99236.09;4503478;31;20080;-90
2022/01/01 11:24:33;;;;;;;8.55;2.50;;;;;;;15.85;55.11;99247.97;4503512;31;20363;-89
2022/01/01 11:26:59;;;;;;;7.40;2.37;;;;;;;15.77;55.13;99249.47;4503542;31;20114;-90
2022/01/01 11:29:24;;;;;;;8.95;2.37;;;;;;;15.93;54.46;99247.44;4489039;31;20095;-89
2022/01/01 11:31:52;;;;;;;8.90;2.35;;;;;;;15.88;54.62;99244.28;4503380;31;20099;-89
2022/01/01 11:34:17;;;;;;;;;;;;;;;15.90;54.54;99237.03;4489229;31;20151;-89